Time;durP1;ratioP1;P1;durP2;ratioP2;P2;SDS_P1;SDS_P2;PMS_P1;PMS_P2;Temp;Humidity;BMP_temperature;BMP_pressure;BME280_temperature;BME280_humidity;BME280_pressure;Samples;Min_cycle;Max_cycle;Signal;HPM_P1;HPM_P2
2023/01/19 00:01:10;;;;;;;9.52;3.83;;;0.20;99.90;;;;;;5018147;28;20531;-79
2023/01/19 00:03:37;;;;;;;8.05;3.92;;;0.20;99.90;;;;;;5017339;28;20037;-80
2023/01/19 00:06:03;;;;;;;7.25;3.47;;;0.20;99.90;;;;;;5018649;28;20055;-79
2023/01/19 00:08:30;;;;;;;8.63;3.72;;;0.20;99.90;;;;;;5017762;28;20357;-81
2023/01/19 00:10:57;;;;;;;8.00;3.45;;;0.20;99.90;;;;;;5001898;28;20071;-78
2023/01/19 00:13:23;;;;;;;7.63;3.80;;;0.20;99.90;;;;;;5018441;28;20380;-79
2023/01/19 00:15:50;;;;;;;8.13;3.45;;;0.10;99.90;;;;;;5016991;28;20132;-79
2023/01/19 00:18:17;;;;;;;7.82;4.07;;;0.00;99.90;;;;;;5035515;28;20135;-81
2023/01/19 00:20:43;;;;;;;6.03;3.90;;;0.10;99.90;;;;;;5035186;28;20064;-81
2023/01/19 00:23:10;;;;;;;8.95;4.63;;;0.00;99.90;;;;;;5034348;28;20045;-80
2023/01/19 00:25:41;;;;;;;13.13;4.93;;;0.00;99.90;;;;;;5035481;28;20464;-79
2023/01/19 00:28:08;;;;;;;9.95;3.97;;;0.00;99.90;;;;;;5001829;28;20054;-80
2023/01/19 00:30:34;;;;;;;8.35;4.80;;;0.00;99.90;;;;;;5016514;28;20067;-78
2023/01/19 00:33:01;;;;;;;8.80;3.92;;;0.10;99.90;;;;;;5018025;28;20052;-82
2023/01/19 00:35:28;;;;;;;6.55;4.35;;;0.10;99.90;;;;;;5000241;28;20041;-79
2023/01/19 00:37:55;;;;;;;7.05;3.85;;;0.10;99.90;;;;;;5035228;28;20038;-79
2023/01/19 00:40:22;;;;;;;9.75;3.95;;;0.00;99.90;;;;;;5017438;28;20367;-81
2023/01/19 00:42:48;;;;;;;5.47;4.30;;;-0.10;99.90;;;;;;5034037;28;20037;-79
2023/01/19 00:45:15;;;;;;;9.70;4.03;;;-0.20;99.90;;;;;;5035176;28;20463;-79
2023/01/19 00:47:42;;;;;;;9.45;3.75;;;-0.20;99.90;;;;;;5035090;28;20124;-79
2023/01/19 00:50:10;;;;;;;10.13;4.30;;;-0.20;99.90;;;;;;5015930;28;20053;-79
2023/01/19 00:52:37;;;;;;;7.55;3.70;;;-0.30;99.90;;;;;;5017576;28;20566;-81
2023/01/19 00:55:04;;;;;;;7.38;3.92;;;-0.30;99.90;;;;;;5017706;28;20140;-80
2023/01/19 00:57:30;;;;;;;9.32;3.75;;;-0.30;99.90;;;;;;5016728;28;20045;-78
2023/01/19 00:59:57;;;;;;;9.05;3.95;;;-0.20;99.90;;;;;;5017159;28;20033;-80
2023/01/19 01:02:24;;;;;;;7.68;4.50;;;-0.10;99.90;;;;;;5016361;28;20042;-78
2023/01/19 01:04:53;;;;;;;9.15;3.72;;;-0.10;99.90;;;;;;5017594;28;20045;-78
2023/01/19 01:07:20;;;;;;;8.35;3.60;;;-0.10;99.90;;;;;;5034720;28;20072;-81
2023/01/19 01:09:47;;;;;;;10.43;4.25;;;0.00;99.90;;;;;;5015978;28;20049;-81
2023/01/19 01:12:14;;;;;;;10.07;4.05;;;0.00;99.90;;;;;;5034680;28;20072;-80
2023/01/19 01:14:40;;;;;;;5.15;3.67;;;0.00;99.90;;;;;;5017393;28;20084;-81
2023/01/19 01:17:10;;;;;;;7.05;4.30;;;-0.10;99.90;;;;;;5016316;28;20037;-82
2023/01/19 01:19:37;;;;;;;6.95;4.25;;;-0.20;99.90;;;;;;5016751;28;20049;-80
2023/01/19 01:22:04;;;;;;;5.70;3.00;;;-0.20;99.90;;;;;;5033583;28;20033;-82
2023/01/19 01:24:30;;;;;;;7.13;4.15;;;-0.30;99.90;;;;;;5034735;28;20033;-80
2023/01/19 01:26:57;;;;;;;10.57;4.95;;;-0.40;99.90;;;;;;5013650;28;20057;-79
2023/01/19 01:29:24;;;;;;;7.60;4.03;;;-0.40;99.90;;;;;;4993481;28;20056;-78
2023/01/19 01:31:50;;;;;;;6.45;3.40;;;-0.40;99.90;;;;;;4996668;28;20085;-79
2023/01/19 01:34:17;;;;;;;5.15;2.90;;;-0.40;99.90;;;;;;4981405;28;20464;-82
2023/01/19 01:36:44;;;;;;;10.27;5.47;;;-0.50;99.90;;;;;;4996282;28;20046;-81
2023/01/19 01:39:10;;;;;;;5.05;3.15;;;-0.50;99.90;;;;;;4980952;28;20038;-79
2023/01/19 01:41:37;;;;;;;9.00;3.85;;;-0.50;99.90;;;;;;5014544;28;20044;-79
2023/01/19 01:44:07;;;;;;;8.35;3.50;;;-0.50;99.90;;;;;;4996560;28;20052;-79
2023/01/19 01:46:34;;;;;;;6.18;3.00;;;-0.50;99.90;;;;;;4997333;28;20054;-80
2023/01/19 01:49:00;;;;;;;7.00;4.03;;;-0.50;99.90;;;;;;4982869;28;20061;-78
2023/01/19 01:51:27;;;;;;;6.10;3.53;;;-0.60;99.90;;;;;;5001566;28;20117;-81
2023/01/19 01:53:54;;;;;;;8.98;3.50;;;-0.60;99.90;;;;;;5018526;28;20042;-79
2023/01/19 01:56:20;;;;;;;9.00;4.32;;;-0.60;99.90;;;;;;5031069;28;20439;-81
2023/01/19 01:58:47;;;;;;;7.40;3.35;;;-0.60;99.90;;;;;;5020572;28;20095;-80
2023/01/19 02:04:00;;;;;;;7.18;3.65;;;-0.60;99.90;;;;;;5036979;28;20468;-78
2023/01/19 02:06:26;;;;;;;8.38;3.95;;;-0.60;99.90;;;;;;5020837;28;20042;-81
2023/01/19 02:14:24;;;;;;;9.65;3.20;;;-0.40;99.90;;;;;;5038290;28;20041;-77
2023/01/19 02:16:50;;;;;;;6.18;3.00;;;-0.50;99.90;;;;;;5036811;28;20037;-80
2023/01/19 02:19:17;;;;;;;6.07;3.35;;;-0.50;99.90;;;;;;5037577;28;20091;-81
2023/01/19 02:21:43;;;;;;;8.38;2.90;;;-0.60;99.90;;;;;;5020301;28;20049;-82
2023/01/19 02:24:10;;;;;;;5.45;2.90;;;-0.60;99.90;;;;;;5036999;28;20052;-80
2023/01/19 02:26:37;;;;;;;4.72;3.88;;;-0.80;99.90;;;;;;5020541;28;20124;-80
2023/01/19 02:29:04;;;;;;;6.18;3.25;;;-0.80;99.90;;;;;;5018708;28;20144;-80
2023/01/19 02:31:30;;;;;;;8.85;3.47;;;-0.90;99.90;;;;;;5020291;28;20049;-79
2023/01/19 02:33:57;;;;;;;5.15;2.47;;;-0.90;99.90;;;;;;5037572;28;20056;-81
2023/01/19 02:36:24;;;;;;;5.95;3.10;;;-1.00;99.90;;;;;;5036493;28;20047;-81
2023/01/19 02:38:51;;;;;;;7.80;3.72;;;-1.00;99.90;;;;;;5037240;28;20103;-81
2023/01/19 02:41:18;;;;;;;8.35;3.30;;;-1.00;99.90;;;;;;5019954;28;20049;-80
2023/01/19 02:43:44;;;;;;;5.72;3.28;;;-1.10;99.90;;;;;;5019130;28;20050;-82
2023/01/19 02:46:11;;;;;;;5.10;3.28;;;-1.10;99.90;;;;;;5037298;28;20049;-79
2023/01/19 02:48:38;;;;;;;6.38;3.20;;;-1.20;99.90;;;;;;5019130;28;20053;-80
2023/01/19 02:51:04;;;;;;;7.47;3.40;;;-1.20;99.90;;;;;;5037297;28;20053;-80
2023/01/19 02:53:31;;;;;;;5.25;3.17;;;-1.30;99.90;;;;;;5019993;28;20049;-79
2023/01/19 02:55:58;;;;;;;5.88;3.83;;;-1.30;99.90;;;;;;5018995;28;20041;-80
2023/01/19 02:58:24;;;;;;;8.48;3.72;;;-1.30;99.90;;;;;;5019990;28;20456;-80
2023/01/19 03:00:51;;;;;;;7.43;3.45;;;-1.40;99.90;;;;;;5019563;28;20048;-81
2023/01/19 03:03:18;;;;;;;8.73;3.28;;;-1.40;99.90;;;;;;5018667;28;20057;-80
2023/01/19 03:05:44;;;;;;;6.05;2.90;;;-1.40;99.90;;;;;;5019802;28;20044;-80
2023/01/19 03:08:11;;;;;;;5.07;2.90;;;-1.40;99.90;;;;;;5036979;28;20122;-79
2023/01/19 03:10:41;;;;;;;7.38;3.65;;;-1.40;99.90;;;;;;5018132;28;20033;-79
2023/01/19 03:13:07;;;;;;;5.50;3.60;;;-1.50;99.90;;;;;;5019612;28;20112;-79
2023/01/19 03:15:34;;;;;;;5.63;3.03;;;-1.50;99.90;;;;;;5018339;28;20038;-79
2023/01/19 03:18:01;;;;;;;9.43;3.50;;;-1.50;99.90;;;;;;5019521;28;20075;-81
2023/01/19 03:20:27;;;;;;;6.85;3.25;;;-1.50;99.90;;;;;;5018944;28;20376;-78
2023/01/19 03:22:54;;;;;;;9.05;4.13;;;-1.50;99.90;;;;;;5035637;28;20045;-79
2023/01/19 03:25:21;;;;;;;5.05;3.67;;;-1.50;99.90;;;;;;5036756;28;20040;-80
2023/01/19 03:27:47;;;;;;;5.38;3.72;;;-1.60;99.90;;;;;;5019216;28;20041;-81
2023/01/19 03:30:14;;;;;;;7.47;3.33;;;-1.60;99.90;;;;;;5017671;28;20472;-81
2023/01/19 03:32:41;;;;;;;9.02;3.58;;;-1.60;99.90;;;;;;5036515;28;20045;-80
2023/01/19 03:35:07;;;;;;;4.75;3.17;;;-1.60;99.90;;;;;;5035631;28;20041;-81
2023/01/19 03:37:34;;;;;;;6.47;3.03;;;-1.60;99.90;;;;;;5018862;28;20380;-79
2023/01/19 03:40:00;;;;;;;6.13;3.20;;;-1.60;99.90;;;;;;5036041;28;20033;-81
2023/01/19 03:42:27;;;;;;;5.10;2.97;;;-1.70;99.90;;;;;;5035278;28;20371;-81
2023/01/19 03:44:55;;;;;;;6.25;3.10;;;-1.70;99.90;;;;;;5018930;28;20037;-80
2023/01/19 03:47:21;;;;;;;6.10;3.53;;;-1.70;99.90;;;;;;5019028;28;20048;-79
2023/01/19 03:49:49;;;;;;;8.40;3.58;;;-1.70;99.90;;;;;;5017170;28;20361;-81
2023/01/19 03:52:15;;;;;;;6.00;3.45;;;-1.80;99.90;;;;;;5036150;28;20124;-79
2023/01/19 03:54:42;;;;;;;9.82;3.30;;;-1.80;99.90;;;;;;5018290;28;20045;-79
2023/01/19 03:57:08;;;;;;;6.72;3.25;;;-1.80;99.90;;;;;;4997817;28;20052;-81
2023/01/19 03:59:35;;;;;;;4.30;2.92;;;-1.70;99.90;;;;;;4998571;28;20041;-80
2023/01/19 04:02:02;;;;;;;8.02;4.07;;;-1.70;99.90;;;;;;4997894;28;20056;-80
2023/01/19 04:04:28;;;;;;;4.63;2.72;;;-1.70;99.90;;;;;;4998823;28;20050;-80
2023/01/19 04:06:56;;;;;;;7.82;3.72;;;-1.80;99.90;;;;;;4999098;28;20045;-79
2023/01/19 04:09:24;;;;;;;8.30;3.95;;;-1.70;99.90;;;;;;4997597;28;20046;-78
2023/01/19 04:11:51;;;;;;;5.35;2.78;;;-1.70;99.90;;;;;;5015406;28;20379;-80
2023/01/19 04:14:18;;;;;;;9.25;3.28;;;-1.70;99.90;;;;;;4982591;28;20046;-79
2023/01/19 04:16:44;;;;;;;5.72;3.50;;;-1.60;99.90;;;;;;5014824;28;20042;-79
2023/01/19 04:19:11;;;;;;;6.57;3.38;;;-1.60;99.90;;;;;;5015503;28;20068;-79
2023/01/19 04:21:38;;;;;;;6.25;3.38;;;-1.70;99.90;;;;;;4998622;28;20042;-81
2023/01/19 04:24:05;;;;;;;9.27;3.47;;;-1.70;99.90;;;;;;4997592;28;20412;-81
2023/01/19 04:26:31;;;;;;;6.85;3.20;;;-1.70;99.90;;;;;;4998747;28;20060;-81
2023/01/19 04:28:58;;;;;;;4.63;2.80;;;-1.70;99.90;;;;;;5014317;28;20103;-79
2023/01/19 04:31:25;;;;;;;9.75;3.65;;;-1.70;99.90;;;;;;5015775;28;20041;-80
2023/01/19 04:33:51;;;;;;;14.52;4.55;;;-1.70;99.90;;;;;;4998604;28;20041;-81
2023/01/19 04:36:18;;;;;;;4.90;3.38;;;-1.70;99.90;;;;;;4997436;28;20388;-81
2023/01/19 04:38:45;;;;;;;6.18;3.03;;;-1.60;99.90;;;;;;5015153;28;20045;-81
2023/01/19 04:41:12;;;;;;;5.68;2.80;;;-1.70;99.90;;;;;;4998457;28;20045;-79
2023/01/19 04:43:38;;;;;;;6.38;4.18;;;-1.70;99.90;;;;;;5014495;28;20041;-81
2023/01/19 04:46:05;;;;;;;7.05;3.65;;;-1.70;99.90;;;;;;5015513;28;20041;-79
2023/01/19 04:48:32;;;;;;;7.95;2.97;;;-1.70;99.90;;;;;;4996671;28;20074;-81
2023/01/19 04:50:59;;;;;;;3.45;3.00;;;-1.70;99.90;;;;;;4982195;28;20049;-79
2023/01/19 04:53:25;;;;;;;4.35;3.03;;;-1.70;99.90;;;;;;4998186;28;20079;-79
2023/01/19 04:55:52;;;;;;;6.20;3.72;;;-1.70;99.90;;;;;;4996901;28;20140;-79
2023/01/19 04:58:19;;;;;;;8.18;4.03;;;-1.60;99.90;;;;;;4998148;28;20100;-81
2023/01/19 05:00:46;;;;;;;6.50;3.72;;;-1.70;99.90;;;;;;5014848;28;20376;-80
2023/01/19 05:03:13;;;;;;;7.03;4.18;;;-1.70;99.90;;;;;;4997063;28;20048;-80
2023/01/19 05:05:39;;;;;;;6.75;3.50;;;-1.60;99.90;;;;;;4998055;28;20056;-80
2023/01/19 05:08:06;;;;;;;8.63;3.88;;;-1.60;99.90;;;;;;5015007;28;20057;-78
2023/01/19 05:10:32;;;;;;;5.18;3.15;;;-1.60;99.90;;;;;;4996568;28;20385;-81
2023/01/19 05:12:59;;;;;;;5.72;3.70;;;-1.70;99.90;;;;;;4998066;28;20041;-79
2023/01/19 05:15:26;;;;;;;5.95;4.10;;;-1.70;99.90;;;;;;5014211;28;20445;-79
2023/01/19 05:17:54;;;;;;;4.75;2.80;;;-1.70;99.90;;;;;;4997856;28;20112;-81
2023/01/19 05:20:20;;;;;;;6.45;3.05;;;-1.60;99.90;;;;;;5014458;28;20045;-79
2023/01/19 05:22:47;;;;;;;5.10;3.22;;;-1.70;99.90;;;;;;4995673;28;20377;-78
2023/01/19 05:25:13;;;;;;;6.80;4.18;;;-1.70;99.90;;;;;;4997715;28;20417;-81
2023/01/19 05:27:40;;;;;;;6.78;2.58;;;-1.70;99.90;;;;;;5015117;28;20041;-81
2023/01/19 05:30:07;;;;;;;6.35;3.67;;;-1.80;99.90;;;;;;4996392;28;20065;-80
2023/01/19 05:32:33;;;;;;;7.00;3.38;;;-1.80;99.90;;;;;;4997707;28;20358;-80
2023/01/19 05:35:00;;;;;;;4.53;3.15;;;-1.80;99.90;;;;;;5014758;28;20434;-79
2023/01/19 05:37:27;;;;;;;5.10;3.65;;;-1.80;99.90;;;;;;5013638;28;20041;-81
2023/01/19 05:39:54;;;;;;;5.50;3.60;;;-1.80;99.90;;;;;;5014421;28;20037;-81
2023/01/19 05:42:20;;;;;;;6.05;3.75;;;-1.80;99.90;;;;;;4996682;28;20038;-81
2023/01/19 05:44:47;;;;;;;7.25;3.72;;;-1.80;99.90;;;;;;4997594;28;20532;-79
2023/01/19 05:47:14;;;;;;;7.05;3.15;;;-1.80;99.90;;;;;;5014636;28;20038;-80
2023/01/19 05:49:40;;;;;;;5.47;3.40;;;-1.80;99.90;;;;;;5012918;28;20392;-81
2023/01/19 05:52:07;;;;;;;5.80;3.53;;;-1.80;99.90;;;;;;4981340;28;20076;-81
2023/01/19 05:54:34;;;;;;;8.38;3.10;;;-1.80;99.90;;;;;;4997380;28;20124;-80
2023/01/19 05:57:01;;;;;;;7.22;3.25;;;-1.80;99.90;;;;;;4996396;28;20384;-79
2023/01/19 05:59:28;;;;;;;5.45;2.95;;;-1.90;99.90;;;;;;4997095;28;20073;-80
2023/01/19 06:01:55;;;;;;;8.50;3.33;;;-1.90;99.90;;;;;;4996393;28;20042;-79
2023/01/19 06:04:22;;;;;;;9.55;4.50;;;-1.90;99.90;;;;;;5014441;28;20053;-80
2023/01/19 06:06:49;;;;;;;8.40;3.25;;;-1.90;99.90;;;;;;4997647;28;20453;-80
2023/01/19 06:09:19;;;;;;;6.90;3.22;;;-1.80;99.90;;;;;;5013094;28;20124;-79
2023/01/19 06:11:45;;;;;;;7.30;3.50;;;-1.70;99.90;;;;;;5014873;28;20046;-81
2023/01/19 06:14:12;;;;;;;7.47;3.63;;;-1.70;99.90;;;;;;4997848;28;20053;-79
2023/01/19 06:16:39;;;;;;;7.50;4.00;;;-1.70;99.90;;;;;;4996796;28;20484;-78
2023/01/19 06:19:05;;;;;;;8.30;4.05;;;-1.70;99.90;;;;;;5014158;28;20049;-78
2023/01/19 06:21:32;;;;;;;8.00;5.40;;;-1.70;99.90;;;;;;4997159;28;20357;-80
2023/01/19 06:23:58;;;;;;;6.35;3.80;;;-1.80;99.90;;;;;;5013353;28;20049;-79
2023/01/19 06:26:25;;;;;;;5.30;3.45;;;-1.70;99.90;;;;;;4997222;28;20046;-81
2023/01/19 06:28:52;;;;;;;9.13;3.88;;;-1.80;99.90;;;;;;4995775;28;20457;-78
2023/01/19 06:31:18;;;;;;;6.60;4.28;;;-1.90;99.90;;;;;;4997026;28;20034;-78
2023/01/19 06:33:45;;;;;;;6.38;4.57;;;-1.90;99.90;;;;;;5015475;28;20049;-80
2023/01/19 06:36:12;;;;;;;5.40;3.72;;;-1.90;99.90;;;;;;4999722;28;20354;-79
2023/01/19 06:38:38;;;;;;;6.97;4.13;;;-1.90;99.90;;;;;;5000073;28;20054;-80
2023/01/19 06:41:05;;;;;;;13.18;5.95;;;-1.90;99.90;;;;;;5000644;28;20350;-79
2023/01/19 06:43:32;;;;;;;6.20;4.15;;;-1.90;99.90;;;;;;4999271;28;20046;-81
2023/01/19 06:46:02;;;;;;;7.63;4.00;;;-1.90;99.90;;;;;;5000344;28;20419;-80
2023/01/19 06:48:29;;;;;;;7.35;3.95;;;-1.90;99.90;;;;;;4998678;28;20081;-80
2023/01/19 06:50:56;;;;;;;7.18;3.40;;;-1.90;99.90;;;;;;5000637;28;20045;-78
2023/01/19 06:53:26;;;;;;;8.80;5.93;;;-1.90;99.90;;;;;;5000835;28;20046;-79
2023/01/19 06:55:53;;;;;;;6.70;3.53;;;-1.90;99.90;;;;;;5016306;28;20052;-81
2023/01/19 06:58:20;;;;;;;7.05;3.85;;;-1.90;99.90;;;;;;5016894;28;20125;-79
2023/01/19 07:00:50;;;;;;;4.72;3.53;;;-2.00;99.90;;;;;;5017275;28;20370;-81
2023/01/19 07:03:17;;;;;;;6.50;3.70;;;-2.00;99.90;;;;;;5016367;28;20038;-79
2023/01/19 07:05:44;;;;;;;7.15;3.85;;;-2.00;99.90;;;;;;5017399;28;20066;-80
2023/01/19 07:08:11;;;;;;;6.65;4.10;;;-2.00;99.90;;;;;;4999929;28;20495;-80
2023/01/19 07:10:38;;;;;;;7.55;3.50;;;-2.00;99.90;;;;;;4998613;28;20053;-77
2023/01/19 07:13:24;;;;;;;6.22;3.63;;;-2.00;99.90;;;;;;4999915;28;20046;-78
2023/01/19 07:15:51;;;;;;;5.90;3.03;;;-2.00;99.90;;;;;;4999121;28;20050;-80
2023/01/19 07:18:18;;;;;;;10.13;4.45;;;-2.00;99.90;;;;;;4999446;28;20064;-80
2023/01/19 07:20:47;;;;;;;7.47;4.68;;;-2.00;99.90;;;;;;4999905;28;20111;-80
2023/01/19 07:23:14;;;;;;;8.05;4.03;;;-2.10;99.90;;;;;;5015816;28;20048;-80
2023/01/19 07:25:41;;;;;;;7.68;4.57;;;-2.10;99.90;;;;;;4999680;28;20037;-79
2023/01/19 07:28:08;;;;;;;6.47;4.55;;;-2.00;99.90;;;;;;4999882;28;20042;-79
2023/01/19 07:30:34;;;;;;;6.25;3.97;;;-2.00;99.90;;;;;;4998436;28;20111;-79
2023/01/19 07:33:01;;;;;;;11.35;4.65;;;-2.00;99.90;;;;;;4999427;28;20054;-78
2023/01/19 07:35:29;;;;;;;10.65;4.57;;;-2.00;99.90;;;;;;5013591;28;20121;-79
2023/01/19 07:37:55;;;;;;;7.90;4.60;;;-2.10;99.90;;;;;;5035381;28;20064;-79
2023/01/19 07:40:22;;;;;;;8.95;5.57;;;-2.10;99.90;;;;;;5019105;28;20033;-79
2023/01/19 07:42:49;;;;;;;10.88;4.80;;;-2.00;99.90;;;;;;5034658;28;20064;-79
2023/01/19 07:45:16;;;;;;;6.78;4.47;;;-2.00;99.90;;;;;;5034699;28;20419;-81
2023/01/19 07:47:43;;;;;;;9.27;5.88;;;-1.90;99.90;;;;;;5036221;28;20064;-80
2023/01/19 07:50:09;;;;;;;7.07;4.30;;;-1.80;99.90;;;;;;5017151;28;20399;-81
2023/01/19 07:52:36;;;;;;;8.13;4.55;;;-1.80;99.90;;;;;;5018561;28;20056;-79
2023/01/19 07:55:03;;;;;;;6.30;4.15;;;-1.80;99.90;;;;;;5006626;28;20045;-80
2023/01/19 07:57:30;;;;;;;7.75;4.50;;;-1.80;99.90;;;;;;5034618;28;20061;-79
2023/01/19 07:59:56;;;;;;;5.45;3.45;;;-1.80;99.90;;;;;;5016445;28;20037;-79
2023/01/19 08:02:24;;;;;;;6.93;4.20;;;-1.80;99.90;;;;;;5015688;28;20053;-80
2023/01/19 08:04:51;;;;;;;5.35;4.05;;;-1.80;99.90;;;;;;5016715;28;20033;-80
2023/01/19 08:07:17;;;;;;;8.15;3.88;;;-1.80;99.90;;;;;;5013087;28;20183;-80
2023/01/19 08:09:44;;;;;;;5.28;3.78;;;-1.80;99.90;;;;;;5034324;28;20037;-79
2023/01/19 08:12:11;;;;;;;6.22;3.70;;;-1.70;99.90;;;;;;5034992;28;20079;-80
2023/01/19 08:14:37;;;;;;;7.45;4.75;;;-1.70;99.90;;;;;;4998688;28;20042;-78
2023/01/19 08:17:04;;;;;;;7.28;4.15;;;-1.70;99.90;;;;;;5015028;28;20373;-79
2023/01/19 08:19:31;;;;;;;7.32;3.47;;;-1.70;99.90;;;;;;5026442;28;20049;-78
2023/01/19 08:21:58;;;;;;;8.35;4.90;;;-1.60;99.90;;;;;;5002951;28;20045;-79
2023/01/19 08:24:27;;;;;;;8.82;4.65;;;-1.70;99.90;;;;;;5028957;28;20030;-77
2023/01/19 08:26:54;;;;;;;6.90;4.28;;;-1.60;99.90;;;;;;5015758;28;20041;-77
2023/01/19 08:29:21;;;;;;;8.38;3.67;;;-1.60;99.90;;;;;;4997437;28;20435;-78
2023/01/19 08:31:47;;;;;;;8.02;4.65;;;-1.50;99.90;;;;;;5015497;28;20049;-79
2023/01/19 08:34:15;;;;;;;7.50;4.00;;;-1.50;99.90;;;;;;5026235;28;20444;-78
2023/01/19 08:36:42;;;;;;;8.23;3.90;;;-1.40;99.90;;;;;;5034832;28;20056;-78
2023/01/19 08:39:10;;;;;;;7.13;3.40;;;-1.40;99.90;;;;;;5041331;28;20045;-78
2023/01/19 08:41:45;;;;;;;7.18;3.42;;;-1.30;99.90;;;;;;5017592;28;20072;-78
2023/01/19 08:44:12;;;;;;;6.93;4.30;;;-1.30;99.90;;;;;;5013857;28;20055;-80
2023/01/19 08:46:39;;;;;;;7.85;3.92;;;-1.30;99.90;;;;;;4982070;28;20056;-79
2023/01/19 08:49:06;;;;;;;7.38;4.38;;;-1.30;99.90;;;;;;5032793;28;20118;-79
2023/01/19 08:51:32;;;;;;;9.15;4.20;;;-1.30;99.90;;;;;;5035260;28;20056;-81
2023/01/19 08:54:00;;;;;;;5.88;3.67;;;-1.30;99.90;;;;;;5035290;28;20037;-81
2023/01/19 08:56:27;;;;;;;10.85;3.92;;;-1.30;99.90;;;;;;5016674;28;20045;-80
2023/01/19 08:58:54;;;;;;;8.23;4.50;;;-1.30;99.90;;;;;;5035071;28;20038;-80
2023/01/19 09:01:35;;;;;;;5.75;4.63;;;-1.40;99.90;;;;;;5035074;28;20403;-80
2023/01/19 09:04:02;;;;;;;6.25;3.75;;;-1.40;99.90;;;;;;5013279;28;20121;-78
2023/01/19 09:06:29;;;;;;;10.00;4.25;;;-1.40;99.90;;;;;;4997977;28;20042;-78
2023/01/19 09:08:56;;;;;;;6.75;4.03;;;-1.50;99.90;;;;;;4996745;28;20056;-78
2023/01/19 09:11:23;;;;;;;6.53;3.55;;;-1.50;99.90;;;;;;5015194;28;20046;-81
2023/01/19 09:13:50;;;;;;;8.45;4.50;;;-1.60;99.90;;;;;;5014997;28;20484;-79
2023/01/19 09:16:16;;;;;;;8.35;4.18;;;-1.50;99.90;;;;;;5014704;28;20417;-79
2023/01/19 09:18:44;;;;;;;6.38;4.32;;;-1.40;99.90;;;;;;5013996;28;20061;-78
2023/01/19 09:21:12;;;;;;;6.57;4.38;;;-1.40;99.90;;;;;;4997679;28;20108;-79
2023/01/19 09:23:39;;;;;;;8.73;5.05;;;-1.30;99.90;;;;;;4996593;28;20049;-79
2023/01/19 09:26:06;;;;;;;7.72;5.05;;;-1.20;99.90;;;;;;5016965;28;20041;-78
2023/01/19 09:28:38;;;;;;;8.82;5.57;;;-1.20;99.90;;;;;;5015218;28;20048;-79
2023/01/19 09:31:05;;;;;;;11.90;5.13;;;-1.00;99.90;;;;;;5016933;28;20384;-79
2023/01/19 09:33:32;;;;;;;8.90;5.38;;;-0.90;99.90;;;;;;5033106;28;20314;-78
2023/01/19 09:36:00;;;;;;;8.32;5.15;;;-0.80;99.90;;;;;;5044530;28;20080;-78
2023/01/19 09:38:30;;;;;;;10.85;5.88;;;-0.60;99.90;;;;;;5054125;28;20368;-79
2023/01/19 09:40:57;;;;;;;8.27;4.53;;;-0.50;99.90;;;;;;5052911;28;20054;-78
2023/01/19 09:43:24;;;;;;;6.78;4.97;;;-0.40;99.90;;;;;;5053526;28;20383;-79
2023/01/19 09:45:51;;;;;;;9.27;4.93;;;-0.40;99.90;;;;;;5053182;28;20041;-78
2023/01/19 09:48:18;;;;;;;9.20;6.15;;;-0.30;99.90;;;;;;5052095;28;20037;-77
2023/01/19 09:50:46;;;;;;;8.70;4.57;;;-0.20;99.90;;;;;;5011887;28;20049;-78
2023/01/19 09:53:13;;;;;;;7.75;4.38;;;-0.10;99.90;;;;;;5016966;28;20392;-79
2023/01/19 09:55:40;;;;;;;10.95;4.75;;;0.00;99.90;;;;;;5016155;28;20045;-78
2023/01/19 09:58:06;;;;;;;9.10;5.55;;;0.10;99.90;;;;;;5017012;28;20046;-78
2023/01/19 10:00:33;;;;;;;7.28;4.32;;;0.30;99.90;;;;;;5034341;28;20029;-77
2023/01/19 10:03:01;;;;;;;6.38;4.47;;;0.50;99.90;;;;;;5033498;28;20041;-77
2023/01/19 10:05:28;;;;;;;8.38;4.88;;;0.80;99.90;;;;;;5017008;28;20145;-78
2023/01/19 10:07:55;;;;;;;6.00;4.28;;;1.10;99.90;;;;;;5016872;28;20510;-80
2023/01/19 10:10:21;;;;;;;7.57;3.67;;;1.40;99.90;;;;;;5041686;28;20045;-80
2023/01/19 10:12:50;;;;;;;7.22;3.88;;;1.60;99.90;;;;;;5040683;28;20045;-80
2023/01/19 10:15:17;;;;;;;11.20;4.65;;;1.80;99.90;;;;;;5039853;28;20148;-80
2023/01/19 10:17:44;;;;;;;6.82;3.67;;;2.10;99.90;;;;;;5057668;28;20052;-81
2023/01/19 10:20:10;;;;;;;7.03;4.63;;;2.30;99.90;;;;;;5036399;28;20048;-80
2023/01/19 10:22:38;;;;;;;10.40;4.20;;;2.50;99.90;;;;;;5017390;28;20042;-80
2023/01/19 10:25:05;;;;;;;7.20;4.53;;;2.60;99.90;;;;;;5018220;28;20041;-79
2023/01/19 10:27:33;;;;;;;8.20;4.30;;;2.90;99.90;;;;;;5000824;28;20046;-78
2023/01/19 10:29:59;;;;;;;7.47;3.72;;;3.00;99.90;;;;;;5000861;28;20042;-78
2023/01/19 10:32:29;;;;;;;5.45;3.53;;;3.20;99.90;;;;;;5056362;28;20041;-78
2023/01/19 10:34:57;;;;;;;8.13;3.70;;;3.40;99.90;;;;;;5057705;28;20098;-78
2023/01/19 10:37:23;;;;;;;7.22;4.38;;;3.50;99.90;;;;;;5017840;28;20428;-79
2023/01/19 10:39:50;;;;;;;6.35;3.75;;;3.70;99.90;;;;;;5000815;28;20088;-80
2023/01/19 10:42:17;;;;;;;7.13;3.80;;;3.80;99.90;;;;;;5017424;28;20062;-78
2023/01/19 10:44:44;;;;;;;8.25;3.50;;;3.90;99.90;;;;;;5017914;28;20056;-78
2023/01/19 10:47:11;;;;;;;6.07;3.28;;;4.00;99.90;;;;;;5017795;28;20052;-81
2023/01/19 10:49:37;;;;;;;10.70;3.88;;;4.20;99.90;;;;;;4999244;28;20588;-82
2023/01/19 10:52:04;;;;;;;6.60;3.63;;;4.30;99.90;;;;;;5017937;28;20053;-79
2023/01/19 10:54:33;;;;;;;6.45;3.55;;;4.60;99.90;;;;;;5000237;28;20519;-80
2023/01/19 10:56:59;;;;;;;4.63;2.92;;;4.70;99.90;;;;;;5016626;28;20038;-79
2023/01/19 10:59:26;;;;;;;6.97;3.28;;;5.10;99.90;;;;;;5000279;28;20493;-80
2023/01/19 11:01:53;;;;;;;5.80;3.05;;;5.20;99.90;;;;;;4999368;28;20077;-83
2023/01/19 11:04:21;;;;;;;5.50;3.03;;;5.30;99.90;;;;;;5017659;28;20038;-80
2023/01/19 11:06:47;;;;;;;8.20;3.40;;;5.50;99.90;;;;;;5017482;28;20034;-83
2023/01/19 11:09:14;;;;;;;8.63;3.33;;;5.50;99.90;;;;;;4998710;28;20072;-79
2023/01/19 11:11:41;;;;;;;8.93;3.88;;;5.60;99.90;;;;;;5041448;28;20049;-82
2023/01/19 11:14:07;;;;;;;7.47;3.83;;;5.70;99.90;;;;;;5057186;28;20052;-79
2023/01/19 11:16:36;;;;;;;6.50;2.92;;;5.90;99.90;;;;;;5055049;28;20041;-83
2023/01/19 11:19:04;;;;;;;8.05;3.40;;;6.10;99.90;;;;;;5056578;28;20447;-81
2023/01/19 11:21:30;;;;;;;12.07;4.40;;;6.10;99.90;;;;;;5056706;28;20037;-81
2023/01/19 11:23:57;;;;;;;8.75;3.60;;;6.30;99.90;;;;;;5038025;28;20040;-79
2023/01/19 11:26:24;;;;;;;5.60;3.30;;;6.30;99.90;;;;;;5047789;28;20038;-80
2023/01/19 11:28:52;;;;;;;6.65;3.92;;;6.40;99.90;;;;;;5001867;28;20455;-80
2023/01/19 11:31:18;;;;;;;7.15;3.15;;;6.60;99.90;;;;;;5027081;28;20108;-80
2023/01/19 11:33:45;;;;;;;7.10;3.63;;;6.70;99.90;;;;;;5035018;28;20046;-80
2023/01/19 11:36:13;;;;;;;6.65;3.03;;;6.80;99.90;;;;;;5035666;28;20099;-78
2023/01/19 11:38:42;;;;;;;8.38;3.25;;;7.00;99.90;;;;;;5032772;28;20075;-80
2023/01/19 11:41:11;;;;;;;6.95;3.83;;;7.10;99.90;;;;;;5055478;28;20037;-80
2023/01/19 11:43:38;;;;;;;6.10;2.75;;;7.30;99.90;;;;;;5055363;28;20370;-82
2023/01/19 11:46:15;;;;;;;6.93;3.00;;;7.30;99.90;;;;;;5048343;28;20041;-82
2023/01/19 11:48:41;;;;;;;8.38;3.25;;;7.40;99.90;;;;;;5035118;28;20053;-83
2023/01/19 11:51:08;;;;;;;6.50;2.60;;;7.30;99.90;;;;;;5019091;28;20124;-79
2023/01/19 11:53:35;;;;;;;5.75;2.72;;;6.80;99.90;;;;;;5019003;28;20056;-82
2023/01/19 11:56:03;;;;;;;5.88;2.45;;;6.40;99.90;;;;;;5035458;28;20033;-81
2023/01/19 11:58:30;;;;;;;8.65;3.72;;;6.10;99.90;;;;;;5018328;28;20052;-81
2023/01/19 12:00:56;;;;;;;7.13;3.45;;;5.70;99.90;;;;;;5035826;28;20132;-80
2023/01/19 12:03:23;;;;;;;10.85;3.53;;;5.40;99.90;;;;;;5017923;28;20053;-80
2023/01/19 12:05:50;;;;;;;8.00;3.35;;;5.30;99.90;;;;;;5021109;28;20056;-79
2023/01/19 12:08:17;;;;;;;8.18;3.83;;;5.20;99.90;;;;;;5054729;28;20045;-80
2023/01/19 12:10:43;;;;;;;8.13;3.03;;;5.20;99.90;;;;;;5055700;28;20383;-79
2023/01/19 12:13:10;;;;;;;9.90;4.00;;;5.20;99.90;;;;;;5055897;28;20340;-82
2023/01/19 12:15:37;;;;;;;10.23;4.20;;;5.40;99.90;;;;;;5055293;28;20060;-83
2023/01/19 12:18:03;;;;;;;11.25;3.97;;;5.60;99.90;;;;;;5054839;28;20049;-78
2023/01/19 12:20:30;;;;;;;8.15;4.68;;;5.60;99.90;;;;;;5038124;28;20045;-81
2023/01/19 12:22:57;;;;;;;6.97;3.88;;;5.70;99.90;;;;;;5054723;28;20037;-81
2023/01/19 12:25:25;;;;;;;8.13;4.05;;;5.70;99.90;;;;;;5038726;28;20053;-79
2023/01/19 12:27:52;;;;;;;6.90;3.90;;;5.60;99.90;;;;;;5054695;28;20345;-76
2023/01/19 12:30:18;;;;;;;6.50;4.10;;;5.70;99.90;;;;;;5041456;28;20045;-79
2023/01/19 12:32:46;;;;;;;5.25;3.17;;;5.70;99.90;;;;;;5055079;28;20048;-81
2023/01/19 12:35:13;;;;;;;7.20;3.53;;;5.60;99.90;;;;;;5037036;28;20053;-78
2023/01/19 12:37:39;;;;;;;8.20;3.40;;;5.50;99.90;;;;;;5055270;28;20057;-78
2023/01/19 12:40:06;;;;;;;6.25;3.60;;;5.30;99.90;;;;;;5037441;28;20049;-80
2023/01/19 12:42:34;;;;;;;10.25;3.55;;;5.10;99.90;;;;;;5053490;28;20555;-80
2023/01/19 12:45:00;;;;;;;8.45;4.18;;;5.00;99.90;;;;;;5055425;28;20079;-81
2023/01/19 12:47:27;;;;;;;8.70;3.60;;;4.90;99.90;;;;;;5041088;28;20046;-79
2023/01/19 12:49:54;;;;;;;10.93;4.65;;;4.90;99.90;;;;;;5033772;28;20077;-81
2023/01/19 12:52:20;;;;;;;9.48;4.68;;;4.80;99.90;;;;;;5017952;28;20059;-81
2023/01/19 12:54:47;;;;;;;8.07;4.30;;;4.70;99.90;;;;;;5035532;28;20092;-82